sensor_id;sensor_type;location;lat;lon;timestamp;temperature;humidity
9980;DHT22;5030;51.532;6.766;2022-09-11T00:00:42;14.50;99.90
9980;DHT22;5030;51.532;6.766;2022-09-11T00:03:08;14.50;99.90
9980;DHT22;5030;51.532;6.766;2022-09-11T00:05:38;14.50;99.90
9980;DHT22;5030;51.532;6.766;2022-09-11T00:08:12;14.40;99.90
9980;DHT22;5030;51.532;6.766;2022-09-11T00:10:40;14.30;99.90
9980;DHT22;5030;51.532;6.766;2022-09-11T00:13:07;14.30;99.90
9980;DHT22;5030;51.532;6.766;2022-09-11T00:15:42;14.20;99.90
9980;DHT22;5030;51.532;6.766;2022-09-11T00:18:11;14.20;99.90
9980;DHT22;5030;51.532;6.766;2022-09-11T00:20:38;14.20;99.90
9980;DHT22;5030;51.532;6.766;2022-09-11T00:23:04;14.30;99.90
9980;DHT22;5030;51.532;6.766;2022-09-11T00:25:34;14.50;99.90
9980;DHT22;5030;51.532;6.766;2022-09-11T00:28:00;14.70;99.90
9980;DHT22;5030;51.532;6.766;2022-09-11T00:30:27;14.80;99.90
9980;DHT22;5030;51.532;6.766;2022-09-11T00:32:53;14.90;99.90
9980;DHT22;5030;51.532;6.766;2022-09-11T00:35:19;15.00;99.90
9980;DHT22;5030;51.532;6.766;2022-09-11T00:37:45;15.00;99.90
9980;DHT22;5030;51.532;6.766;2022-09-11T00:40:13;15.00;99.90
9980;DHT22;5030;51.532;6.766;2022-09-11T00:42:40;15.00;99.90
9980;DHT22;5030;51.532;6.766;2022-09-11T00:45:07;15.00;99.90
9980;DHT22;5030;51.532;6.766;2022-09-11T00:47:40;15.00;99.90
9980;DHT22;5030;51.532;6.766;2022-09-11T00:50:12;14.90;99.90
9980;DHT22;5030;51.532;6.766;2022-09-11T00:52:42;14.90;99.90
9980;DHT22;5030;51.532;6.766;2022-09-11T00:55:15;14.90;99.90
9980;DHT22;5030;51.532;6.766;2022-09-11T00:57:53;15.00;99.90
9980;DHT22;5030;51.532;6.766;2022-09-11T01:00:20;15.00;99.90
9980;DHT22;5030;51.532;6.766;2022-09-11T01:02:48;15.00;99.90
9980;DHT22;5030;51.532;6.766;2022-09-11T01:05:15;14.90;99.90
9980;DHT22;5030;51.532;6.766;2022-09-11T01:07:43;14.90;99.90
9980;DHT22;5030;51.532;6.766;2022-09-11T01:10:10;14.90;99.90
9980;DHT22;5030;51.532;6.766;2022-09-11T01:12:54;14.90;99.90
9980;DHT22;5030;51.532;6.766;2022-09-11T01:15:32;14.80;99.90
9980;DHT22;5030;51.532;6.766;2022-09-11T01:18:20;14.80;99.90
9980;DHT22;5030;51.532;6.766;2022-09-11T01:21:00;14.80;99.90
9980;DHT22;5030;51.532;6.766;2022-09-11T01:26:52;14.70;99.90
9980;DHT22;5030;51.532;6.766;2022-09-11T01:29:28;14.80;99.90
9980;DHT22;5030;51.532;6.766;2022-09-11T01:31:58;14.70;99.90
9980;DHT22;5030;51.532;6.766;2022-09-11T01:35:01;14.70;99.90
9980;DHT22;5030;51.532;6.766;2022-09-11T01:37:56;14.80;99.90
9980;DHT22;5030;51.532;6.766;2022-09-11T01:40:32;14.70;99.90
9980;DHT22;5030;51.532;6.766;2022-09-11T01:43:05;14.70;99.90
9980;DHT22;5030;51.532;6.766;2022-09-11T01:45:33;14.70;99.90
9980;DHT22;5030;51.532;6.766;2022-09-11T01:48:01;14.70;99.90
9980;DHT22;5030;51.532;6.766;2022-09-11T01:50:29;14.60;99.90
9980;DHT22;5030;51.532;6.766;2022-09-11T01:52:58;14.50;99.90
9980;DHT22;5030;51.532;6.766;2022-09-11T01:55:39;14.50;99.90
9980;DHT22;5030;51.532;6.766;2022-09-11T01:58:14;14.50;99.90
9980;DHT22;5030;51.532;6.766;2022-09-11T02:00:46;14.50;99.90
9980;DHT22;5030;51.532;6.766;2022-09-11T02:03:22;14.40;99.90
9980;DHT22;5030;51.532;6.766;2022-09-11T02:08:29;14.30;99.90
9980;DHT22;5030;51.532;6.766;2022-09-11T02:11:05;14.30;99.90
9980;DHT22;5030;51.532;6.766;2022-09-11T02:14:12;14.30;99.90
9980;DHT22;5030;51.532;6.766;2022-09-11T02:19:15;14.30;99.90
9980;DHT22;5030;51.532;6.766;2022-09-11T02:21:42;14.30;99.90
9980;DHT22;5030;51.532;6.766;2022-09-11T02:24:09;14.40;99.90
9980;DHT22;5030;51.532;6.766;2022-09-11T02:26:41;14.30;99.90
9980;DHT22;5030;51.532;6.766;2022-09-11T02:29:07;14.30;99.90
9980;DHT22;5030;51.532;6.766;2022-09-11T02:31:34;14.40;99.90
9980;DHT22;5030;51.532;6.766;2022-09-11T02:34:00;14.40;99.90
9980;DHT22;5030;51.532;6.766;2022-09-11T02:53:24;14.30;99.90
9980;DHT22;5030;51.532;6.766;2022-09-11T03:01:02;14.30;99.90
9980;DHT22;5030;51.532;6.766;2022-09-11T03:03:36;14.30;99.90
9980;DHT22;5030;51.532;6.766;2022-09-11T03:06:03;14.30;99.90
9980;DHT22;5030;51.532;6.766;2022-09-11T03:08:28;14.30;99.90
9980;DHT22;5030;51.532;6.766;2022-09-11T03:10:55;14.30;99.90
9980;DHT22;5030;51.532;6.766;2022-09-11T03:13:21;14.40;99.90
9980;DHT22;5030;51.532;6.766;2022-09-11T03:15:47;14.30;99.90
9980;DHT22;5030;51.532;6.766;2022-09-11T03:18:13;14.30;99.90
9980;DHT22;5030;51.532;6.766;2022-09-11T03:20:43;14.40;99.90
9980;DHT22;5030;51.532;6.766;2022-09-11T03:23:14;14.40;99.90
9980;DHT22;5030;51.532;6.766;2022-09-11T03:25:39;14.40;99.90
9980;DHT22;5030;51.532;6.766;2022-09-11T03:28:05;14.40;99.90
9980;DHT22;5030;51.532;6.766;2022-09-11T03:30:32;14.40;99.90
9980;DHT22;5030;51.532;6.766;2022-09-11T03:32:57;14.40;99.90
9980;DHT22;5030;51.532;6.766;2022-09-11T03:35:25;14.40;99.90
9980;DHT22;5030;51.532;6.766;2022-09-11T03:37:52;14.40;99.90
9980;DHT22;5030;51.532;6.766;2022-09-11T03:40:18;14.40;99.90
9980;DHT22;5030;51.532;6.766;2022-09-11T03:42:44;14.40;99.90
9980;DHT22;5030;51.532;6.766;2022-09-11T03:45:10;14.40;99.90
9980;DHT22;5030;51.532;6.766;2022-09-11T03:47:36;14.50;99.90
9980;DHT22;5030;51.532;6.766;2022-09-11T03:50:02;14.40;99.90
9980;DHT22;5030;51.532;6.766;2022-09-11T03:52:28;14.50;99.90
9980;DHT22;5030;51.532;6.766;2022-09-11T03:54:54;14.40;99.90
9980;DHT22;5030;51.532;6.766;2022-09-11T03:57:20;14.40;99.90
9980;DHT22;5030;51.532;6.766;2022-09-11T03:59:46;14.50;99.90
9980;DHT22;5030;51.532;6.766;2022-09-11T04:02:11;14.50;99.90
9980;DHT22;5030;51.532;6.766;2022-09-11T04:04:37;14.40;99.90
9980;DHT22;5030;51.532;6.766;2022-09-11T04:07:02;14.50;99.90
9980;DHT22;5030;51.532;6.766;2022-09-11T04:09:28;14.50;99.90
9980;DHT22;5030;51.532;6.766;2022-09-11T04:11:56;14.50;99.90
9980;DHT22;5030;51.532;6.766;2022-09-11T04:14:21;14.50;99.90
9980;DHT22;5030;51.532;6.766;2022-09-11T04:16:48;14.50;99.90
9980;DHT22;5030;51.532;6.766;2022-09-11T04:19:15;14.40;99.90
9980;DHT22;5030;51.532;6.766;2022-09-11T04:21:41;14.40;99.90
9980;DHT22;5030;51.532;6.766;2022-09-11T04:24:09;14.40;99.90
9980;DHT22;5030;51.532;6.766;2022-09-11T04:26:34;14.30;99.90
9980;DHT22;5030;51.532;6.766;2022-09-11T04:29:00;14.30;99.90
9980;DHT22;5030;51.532;6.766;2022-09-11T04:31:26;14.30;99.90
9980;DHT22;5030;51.532;6.766;2022-09-11T04:33:53;14.30;99.90
9980;DHT22;5030;51.532;6.766;2022-09-11T04:36:20;14.30;99.90
9980;DHT22;5030;51.532;6.766;2022-09-11T04:38:47;14.30;99.90
9980;DHT22;5030;51.532;6.766;2022-09-11T04:41:14;14.30;99.90
9980;DHT22;5030;51.532;6.766;2022-09-11T04:43:41;14.30;99.90
9980;DHT22;5030;51.532;6.766;2022-09-11T04:46:15;14.30;99.90
9980;DHT22;5030;51.532;6.766;2022-09-11T04:48:52;14.30;99.90
9980;DHT22;5030;51.532;6.766;2022-09-11T04:51:32;14.30;99.90
9980;DHT22;5030;51.532;6.766;2022-09-11T04:53:59;14.30;99.90
9980;DHT22;5030;51.532;6.766;2022-09-11T04:56:31;14.30;99.90
9980;DHT22;5030;51.532;6.766;2022-09-11T04:59:00;14.30;99.90
9980;DHT22;5030;51.532;6.766;2022-09-11T05:01:28;14.30;99.90
9980;DHT22;5030;51.532;6.766;2022-09-11T05:03:54;14.40;99.90
9980;DHT22;5030;51.532;6.766;2022-09-11T05:06:21;14.30;99.90
9980;DHT22;5030;51.532;6.766;2022-09-11T05:08:47;14.30;99.90
9980;DHT22;5030;51.532;6.766;2022-09-11T05:11:14;14.30;99.90
9980;DHT22;5030;51.532;6.766;2022-09-11T05:13:41;14.30;99.90
9980;DHT22;5030;51.532;6.766;2022-09-11T05:16:09;14.30;99.90
9980;DHT22;5030;51.532;6.766;2022-09-11T05:18:36;14.30;99.90
9980;DHT22;5030;51.532;6.766;2022-09-11T05:21:04;14.30;99.90
9980;DHT22;5030;51.532;6.766;2022-09-11T05:23:30;14.30;99.90
9980;DHT22;5030;51.532;6.766;2022-09-11T05:25:57;14.40;99.90
9980;DHT22;5030;51.532;6.766;2022-09-11T05:28:24;14.30;99.90
9980;DHT22;5030;51.532;6.766;2022-09-11T05:30:50;14.30;99.90
9980;DHT22;5030;51.532;6.766;2022-09-11T05:33:17;14.20;99.90
9980;DHT22;5030;51.532;6.766;2022-09-11T05:35:43;14.30;99.90
9980;DHT22;5030;51.532;6.766;2022-09-11T05:38:09;14.30;99.90
9980;DHT22;5030;51.532;6.766;2022-09-11T05:40:35;14.30;99.90
9980;DHT22;5030;51.532;6.766;2022-09-11T05:43:01;14.30;99.90
9980;DHT22;5030;51.532;6.766;2022-09-11T05:45:27;14.30;99.90
9980;DHT22;5030;51.532;6.766;2022-09-11T05:47:52;14.30;99.90
9980;DHT22;5030;51.532;6.766;2022-09-11T05:50:18;14.30;99.90
9980;DHT22;5030;51.532;6.766;2022-09-11T05:52:46;14.30;99.90
9980;DHT22;5030;51.532;6.766;2022-09-11T05:55:11;14.30;99.90
9980;DHT22;5030;51.532;6.766;2022-09-11T05:57:37;14.30;99.90
9980;DHT22;5030;51.532;6.766;2022-09-11T06:00:04;14.30;99.90
9980;DHT22;5030;51.532;6.766;2022-09-11T06:02:29;14.30;99.90
9980;DHT22;5030;51.532;6.766;2022-09-11T06:04:55;14.30;99.90
9980;DHT22;5030;51.532;6.766;2022-09-11T06:07:21;14.30;99.90
9980;DHT22;5030;51.532;6.766;2022-09-11T06:09:46;14.30;99.90
9980;DHT22;5030;51.532;6.766;2022-09-11T06:12:12;14.40;99.90
9980;DHT22;5030;51.532;6.766;2022-09-11T06:14:39;14.50;99.90
9980;DHT22;5030;51.532;6.766;2022-09-11T06:17:07;14.50;99.90
9980;DHT22;5030;51.532;6.766;2022-09-11T06:19:32;14.60;99.90
9980;DHT22;5030;51.532;6.766;2022-09-11T06:21:58;14.60;99.90
9980;DHT22;5030;51.532;6.766;2022-09-11T06:24:24;14.70;99.90
9980;DHT22;5030;51.532;6.766;2022-09-11T06:26:50;14.50;99.90
9980;DHT22;5030;51.532;6.766;2022-09-11T06:29:15;14.60;99.90
9980;DHT22;5030;51.532;6.766;2022-09-11T06:31:41;14.50;99.90
9980;DHT22;5030;51.532;6.766;2022-09-11T06:34:07;14.50;99.90
9980;DHT22;5030;51.532;6.766;2022-09-11T06:36:33;14.60;99.90
9980;DHT22;5030;51.532;6.766;2022-09-11T06:38:58;14.60;99.90
9980;DHT22;5030;51.532;6.766;2022-09-11T06:41:25;14.70;99.90
9980;DHT22;5030;51.532;6.766;2022-09-11T06:43:52;14.80;99.90
9980;DHT22;5030;51.532;6.766;2022-09-11T06:46:19;14.70;99.90
9980;DHT22;5030;51.532;6.766;2022-09-11T06:48:47;14.80;99.90
9980;DHT22;5030;51.532;6.766;2022-09-11T06:51:15;14.70;99.90
9980;DHT22;5030;51.532;6.766;2022-09-11T06:53:42;14.70;99.90
9980;DHT22;5030;51.532;6.766;2022-09-11T06:56:11;14.70;99.90
9980;DHT22;5030;51.532;6.766;2022-09-11T06:58:37;14.80;99.90
9980;DHT22;5030;51.532;6.766;2022-09-11T07:01:16;14.70;99.90
9980;DHT22;5030;51.532;6.766;2022-09-11T07:03:43;14.60;99.90
9980;DHT22;5030;51.532;6.766;2022-09-11T07:06:10;14.60;99.90
9980;DHT22;5030;51.532;6.766;2022-09-11T07:08:36;14.70;99.90
9980;DHT22;5030;51.532;6.766;2022-09-11T07:11:03;14.70;99.90
9980;DHT22;5030;51.532;6.766;2022-09-11T07:13:30;14.80;99.90
9980;DHT22;5030;51.532;6.766;2022-09-11T07:16:05;14.80;99.90
9980;DHT22;5030;51.532;6.766;2022-09-11T07:18:35;14.90;99.90
9980;DHT22;5030;51.532;6.766;2022-09-11T07:21:09;14.90;99.90
9980;DHT22;5030;51.532;6.766;2022-09-11T07:23:36;14.90;99.90
9980;DHT22;5030;51.532;6.766;2022-09-11T07:26:03;14.80;99.90
9980;DHT22;5030;51.532;6.766;2022-09-11T07:28:30;14.70;99.90
9980;DHT22;5030;51.532;6.766;2022-09-11T07:31:03;14.70;99.90
9980;DHT22;5030;51.532;6.766;2022-09-11T07:33:29;14.70;99.90
9980;DHT22;5030;51.532;6.766;2022-09-11T07:35:55;14.70;99.90
9980;DHT22;5030;51.532;6.766;2022-09-11T07:38:20;14.70;99.90
9980;DHT22;5030;51.532;6.766;2022-09-11T07:40:46;14.80;99.90
9980;DHT22;5030;51.532;6.766;2022-09-11T07:43:11;14.90;99.90
9980;DHT22;5030;51.532;6.766;2022-09-11T07:45:38;15.00;99.90
9980;DHT22;5030;51.532;6.766;2022-09-11T07:48:03;15.00;99.90
9980;DHT22;5030;51.532;6.766;2022-09-11T07:50:31;15.10;99.90
9980;DHT22;5030;51.532;6.766;2022-09-11T07:52:57;15.10;99.90
9980;DHT22;5030;51.532;6.766;2022-09-11T07:55:23;15.10;99.90
9980;DHT22;5030;51.532;6.766;2022-09-11T07:57:49;15.10;99.90
9980;DHT22;5030;51.532;6.766;2022-09-11T08:00:16;15.10;99.90
9980;DHT22;5030;51.532;6.766;2022-09-11T08:02:42;15.20;99.90
9980;DHT22;5030;51.532;6.766;2022-09-11T08:05:08;15.30;99.90
9980;DHT22;5030;51.532;6.766;2022-09-11T08:07:35;15.30;99.90
9980;DHT22;5030;51.532;6.766;2022-09-11T08:10:00;15.20;99.90
9980;DHT22;5030;51.532;6.766;2022-09-11T08:12:26;15.30;99.90
9980;DHT22;5030;51.532;6.766;2022-09-11T08:14:52;15.30;99.90
9980;DHT22;5030;51.532;6.766;2022-09-11T08:17:17;15.30;99.90
9980;DHT22;5030;51.532;6.766;2022-09-11T08:19:44;15.10;99.90
9980;DHT22;5030;51.532;6.766;2022-09-11T08:22:11;15.20;99.90
9980;DHT22;5030;51.532;6.766;2022-09-11T08:24:37;15.20;99.90
9980;DHT22;5030;51.532;6.766;2022-09-11T08:27:03;15.10;99.90
9980;DHT22;5030;51.532;6.766;2022-09-11T08:29:30;15.20;99.90
9980;DHT22;5030;51.532;6.766;2022-09-11T08:31:55;15.30;99.90
9980;DHT22;5030;51.532;6.766;2022-09-11T08:34:21;15.20;99.90
9980;DHT22;5030;51.532;6.766;2022-09-11T08:36:47;15.30;99.90
9980;DHT22;5030;51.532;6.766;2022-09-11T08:39:15;15.30;99.90
9980;DHT22;5030;51.532;6.766;2022-09-11T08:42:04;15.40;99.90
9980;DHT22;5030;51.532;6.766;2022-09-11T08:44:48;15.50;99.90
9980;DHT22;5030;51.532;6.766;2022-09-11T08:47:18;15.40;99.90
9980;DHT22;5030;51.532;6.766;2022-09-11T08:50:02;15.30;99.90
9980;DHT22;5030;51.532;6.766;2022-09-11T08:52:30;15.30;99.90
9980;DHT22;5030;51.532;6.766;2022-09-11T08:54:58;15.40;99.90
9980;DHT22;5030;51.532;6.766;2022-09-11T08:57:45;15.40;99.90
9980;DHT22;5030;51.532;6.766;2022-09-11T09:00:38;15.50;99.90
9980;DHT22;5030;51.532;6.766;2022-09-11T09:09:38;15.60;99.90
9980;DHT22;5030;51.532;6.766;2022-09-11T09:18:44;15.70;99.90
9980;DHT22;5030;51.532;6.766;2022-09-11T09:21:20;15.60;99.90
9980;DHT22;5030;51.532;6.766;2022-09-11T09:23:56;15.70;99.90
9980;DHT22;5030;51.532;6.766;2022-09-11T09:26:28;15.60;99.90
9980;DHT22;5030;51.532;6.766;2022-09-11T09:28:58;15.60;99.90
9980;DHT22;5030;51.532;6.766;2022-09-11T09:31:28;15.90;99.90
9980;DHT22;5030;51.532;6.766;2022-09-11T09:34:10;16.10;99.90
9980;DHT22;5030;51.532;6.766;2022-09-11T09:36:47;16.30;99.90
9980;DHT22;5030;51.532;6.766;2022-09-11T09:39:16;16.20;99.90
9980;DHT22;5030;51.532;6.766;2022-09-11T09:45:07;16.20;99.90
9980;DHT22;5030;51.532;6.766;2022-09-11T09:47:25;16.30;99.90
9980;DHT22;5030;51.532;6.766;2022-09-11T09:49:51;16.30;99.90
9980;DHT22;5030;51.532;6.766;2022-09-11T09:52:20;16.20;99.90
9980;DHT22;5030;51.532;6.766;2022-09-11T09:54:58;16.10;99.90
9980;DHT22;5030;51.532;6.766;2022-09-11T09:57:37;16.10;99.90
9980;DHT22;5030;51.532;6.766;2022-09-11T10:02:47;16.10;99.90
9980;DHT22;5030;51.532;6.766;2022-09-11T10:05:32;16.20;99.90
9980;DHT22;5030;51.532;6.766;2022-09-11T10:08:07;16.20;99.90
9980;DHT22;5030;51.532;6.766;2022-09-11T10:11:00;16.30;99.90
9980;DHT22;5030;51.532;6.766;2022-09-11T10:13:29;16.30;99.90
9980;DHT22;5030;51.532;6.766;2022-09-11T10:15:57;16.40;99.90
9980;DHT22;5030;51.532;6.766;2022-09-11T10:21:23;16.40;99.90
9980;DHT22;5030;51.532;6.766;2022-09-11T10:23:56;16.40;99.90
9980;DHT22;5030;51.532;6.766;2022-09-11T10:26:36;16.40;99.90
9980;DHT22;5030;51.532;6.766;2022-09-11T10:31:40;16.40;99.90
9980;DHT22;5030;51.532;6.766;2022-09-11T10:34:14;16.50;99.90
9980;DHT22;5030;51.532;6.766;2022-09-11T10:37:01;16.60;99.90
9980;DHT22;5030;51.532;6.766;2022-09-11T10:39:29;16.70;99.90
9980;DHT22;5030;51.532;6.766;2022-09-11T10:41:58;16.70;99.90
9980;DHT22;5030;51.532;6.766;2022-09-11T10:44:27;16.60;99.90
9980;DHT22;5030;51.532;6.766;2022-09-11T10:47:04;16.60;99.90
9980;DHT22;5030;51.532;6.766;2022-09-11T10:49:31;16.50;99.90
9980;DHT22;5030;51.532;6.766;2022-09-11T10:52:18;16.60;99.90
9980;DHT22;5030;51.532;6.766;2022-09-11T10:54:48;16.90;99.90
9980;DHT22;5030;51.532;6.766;2022-09-11T10:57:49;16.90;99.90
9980;DHT22;5030;51.532;6.766;2022-09-11T11:02:56;17.00;99.90
9980;DHT22;5030;51.532;6.766;2022-09-11T11:05:35;17.10;99.90
9980;DHT22;5030;51.532;6.766;2022-09-11T11:16:44;17.20;99.90
9980;DHT22;5030;51.532;6.766;2022-09-11T11:24:42;17.30;99.90
9980;DHT22;5030;51.532;6.766;2022-09-11T11:29:53;17.20;99.90
9980;DHT22;5030;51.532;6.766;2022-09-11T11:37:45;17.30;99.90
9980;DHT22;5030;51.532;6.766;2022-09-11T11:40:39;17.30;99.90
9980;DHT22;5030;51.532;6.766;2022-09-11T11:43:10;17.50;99.90
9980;DHT22;5030;51.532;6.766;2022-09-11T11:45:47;17.40;99.90
9980;DHT22;5030;51.532;6.766;2022-09-11T11:51:05;17.80;99.90
9980;DHT22;5030;51.532;6.766;2022-09-11T11:53:33;18.10;99.90
9980;DHT22;5030;51.532;6.766;2022-09-11T11:56:23;18.40;99.90
9980;DHT22;5030;51.532;6.766;2022-09-11T11:59:08;18.90;99.90
9980;DHT22;5030;51.532;6.766;2022-09-11T12:01:53;19.10;99.90
9980;DHT22;5030;51.532;6.766;2022-09-11T12:04:58;18.90;99.90
9980;DHT22;5030;51.532;6.766;2022-09-11T12:07:31;18.70;99.90
9980;DHT22;5030;51.532;6.766;2022-09-11T12:09:59;18.40;99.90
9980;DHT22;5030;51.532;6.766;2022-09-11T12:12:34;18.20;99.90
9980;DHT22;5030;51.532;6.766;2022-09-11T12:15:06;18.20;99.90
9980;DHT22;5030;51.532;6.766;2022-09-11T12:17:34;18.30;99.90
9980;DHT22;5030;51.532;6.766;2022-09-11T12:22:45;18.40;99.90
9980;DHT22;5030;51.532;6.766;2022-09-11T12:32:44;19.00;99.90
9980;DHT22;5030;51.532;6.766;2022-09-11T12:35:48;19.20;99.90
9980;DHT22;5030;51.532;6.766;2022-09-11T12:38:29;19.10;99.90
9980;DHT22;5030;51.532;6.766;2022-09-11T12:41:09;18.80;99.90
9980;DHT22;5030;51.532;6.766;2022-09-11T12:48:53;18.80;99.90
9980;DHT22;5030;51.532;6.766;2022-09-11T12:53:57;19.90;99.90
9980;DHT22;5030;51.532;6.766;2022-09-11T12:56:27;19.80;99.90
9980;DHT22;5030;51.532;6.766;2022-09-11T12:59:00;19.90;99.90
9980;DHT22;5030;51.532;6.766;2022-09-11T13:01:42;19.50;99.90
9980;DHT22;5030;51.532;6.766;2022-09-11T13:09:29;19.80;99.90
9980;DHT22;5030;51.532;6.766;2022-09-11T13:17:44;19.80;99.90
9980;DHT22;5030;51.532;6.766;2022-09-11T13:22:41;20.50;99.90
9980;DHT22;5030;51.532;6.766;2022-09-11T13:25:14;20.40;99.90
9980;DHT22;5030;51.532;6.766;2022-09-11T13:27:54;20.60;99.90
9980;DHT22;5030;51.532;6.766;2022-09-11T13:30:21;20.70;99.90
9980;DHT22;5030;51.532;6.766;2022-09-11T13:33:10;20.70;99.90
9980;DHT22;5030;51.532;6.766;2022-09-11T13:35:43;20.90;99.90
9980;DHT22;5030;51.532;6.766;2022-09-11T13:38:31;21.20;99.90
9980;DHT22;5030;51.532;6.766;2022-09-11T13:41:13;21.60;99.90
9980;DHT22;5030;51.532;6.766;2022-09-11T13:43:46;21.70;99.90
9980;DHT22;5030;51.532;6.766;2022-09-11T13:48:43;21.90;99.90
9980;DHT22;5030;51.532;6.766;2022-09-11T13:51:13;22.10;99.90
9980;DHT22;5030;51.532;6.766;2022-09-11T13:53:42;21.70;99.90
9980;DHT22;5030;51.532;6.766;2022-09-11T13:59:25;21.60;99.90
9980;DHT22;5030;51.532;6.766;2022-09-11T14:02:01;21.90;99.90
9980;DHT22;5030;51.532;6.766;2022-09-11T14:04:28;21.80;99.90
9980;DHT22;5030;51.532;6.766;2022-09-11T14:06:54;22.00;99.90
9980;DHT22;5030;51.532;6.766;2022-09-11T14:09:21;21.50;99.90
9980;DHT22;5030;51.532;6.766;2022-09-11T14:11:48;21.40;99.90
9980;DHT22;5030;51.532;6.766;2022-09-11T14:14:24;21.70;99.90
9980;DHT22;5030;51.532;6.766;2022-09-11T14:16:57;21.70;99.90
9980;DHT22;5030;51.532;6.766;2022-09-11T14:19:28;21.80;99.90
9980;DHT22;5030;51.532;6.766;2022-09-11T14:21:54;22.00;99.90
9980;DHT22;5030;51.532;6.766;2022-09-11T14:29:35;22.20;99.90
9980;DHT22;5030;51.532;6.766;2022-09-11T14:32:21;22.10;99.90
9980;DHT22;5030;51.532;6.766;2022-09-11T14:34:50;22.40;99.90
9980;DHT22;5030;51.532;6.766;2022-09-11T14:37:17;22.50;99.90
9980;DHT22;5030;51.532;6.766;2022-09-11T14:42:15;23.20;99.90
9980;DHT22;5030;51.532;6.766;2022-09-11T14:44:43;23.10;99.90
9980;DHT22;5030;51.532;6.766;2022-09-11T14:47:14;23.00;95.80
9980;DHT22;5030;51.532;6.766;2022-09-11T14:49:42;22.80;93.70
9980;DHT22;5030;51.532;6.766;2022-09-11T14:52:11;22.90;99.90
9980;DHT22;5030;51.532;6.766;2022-09-11T14:54:38;22.80;98.50
9980;DHT22;5030;51.532;6.766;2022-09-11T14:57:11;23.20;99.90
9980;DHT22;5030;51.532;6.766;2022-09-11T14:59:37;23.20;99.90
9980;DHT22;5030;51.532;6.766;2022-09-11T15:02:03;23.40;94.50
9980;DHT22;5030;51.532;6.766;2022-09-11T15:04:29;23.60;99.90
9980;DHT22;5030;51.532;6.766;2022-09-11T15:06:56;23.50;91.70
9980;DHT22;5030;51.532;6.766;2022-09-11T15:09:22;23.30;90.90
9980;DHT22;5030;51.532;6.766;2022-09-11T15:11:48;23.60;90.70
9980;DHT22;5030;51.532;6.766;2022-09-11T15:14:18;23.40;95.90
9980;DHT22;5030;51.532;6.766;2022-09-11T15:16:44;23.40;92.20
9980;DHT22;5030;51.532;6.766;2022-09-11T15:19:11;23.40;91.50
9980;DHT22;5030;51.532;6.766;2022-09-11T15:21:37;23.40;86.00
9980;DHT22;5030;51.532;6.766;2022-09-11T15:24:03;23.80;86.20
9980;DHT22;5030;51.532;6.766;2022-09-11T15:26:31;23.00;85.20
9980;DHT22;5030;51.532;6.766;2022-09-11T15:28:57;23.60;87.70
9980;DHT22;5030;51.532;6.766;2022-09-11T15:31:23;24.00;91.30
9980;DHT22;5030;51.532;6.766;2022-09-11T15:33:52;24.70;84.80
9980;DHT22;5030;51.532;6.766;2022-09-11T15:36:27;24.30;63.90
9980;DHT22;5030;51.532;6.766;2022-09-11T15:38:55;23.90;74.20
9980;DHT22;5030;51.532;6.766;2022-09-11T15:41:21;24.00;69.70
9980;DHT22;5030;51.532;6.766;2022-09-11T15:43:48;24.30;82.30
9980;DHT22;5030;51.532;6.766;2022-09-11T15:46:16;24.30;72.60
9980;DHT22;5030;51.532;6.766;2022-09-11T15:48:42;24.30;66.50
9980;DHT22;5030;51.532;6.766;2022-09-11T15:51:12;23.90;65.10
9980;DHT22;5030;51.532;6.766;2022-09-11T15:53:38;23.80;79.70
9980;DHT22;5030;51.532;6.766;2022-09-11T15:56:10;24.00;72.80
9980;DHT22;5030;51.532;6.766;2022-09-11T15:58:37;24.30;72.90
9980;DHT22;5030;51.532;6.766;2022-09-11T16:01:05;24.60;72.60
9980;DHT22;5030;51.532;6.766;2022-09-11T16:03:31;24.30;67.60
9980;DHT22;5030;51.532;6.766;2022-09-11T16:05:57;23.90;70.00
9980;DHT22;5030;51.532;6.766;2022-09-11T16:08:26;23.70;70.40
9980;DHT22;5030;51.532;6.766;2022-09-11T16:10:52;23.60;74.00
9980;DHT22;5030;51.532;6.766;2022-09-11T16:13:19;23.50;80.40
9980;DHT22;5030;51.532;6.766;2022-09-11T16:15:45;23.60;89.80
9980;DHT22;5030;51.532;6.766;2022-09-11T16:18:11;23.80;82.60
9980;DHT22;5030;51.532;6.766;2022-09-11T16:20:38;23.40;84.70
9980;DHT22;5030;51.532;6.766;2022-09-11T16:23:11;23.50;78.90
9980;DHT22;5030;51.532;6.766;2022-09-11T16:25:39;23.30;73.90
9980;DHT22;5030;51.532;6.766;2022-09-11T16:28:06;22.90;89.30
9980;DHT22;5030;51.532;6.766;2022-09-11T16:30:41;22.00;95.60
9980;DHT22;5030;51.532;6.766;2022-09-11T16:33:07;21.30;99.90
9980;DHT22;5030;51.532;6.766;2022-09-11T16:35:35;21.30;99.90
9980;DHT22;5030;51.532;6.766;2022-09-11T16:38:02;21.50;99.90
9980;DHT22;5030;51.532;6.766;2022-09-11T16:40:28;22.00;99.90
9980;DHT22;5030;51.532;6.766;2022-09-11T16:42:54;22.60;99.90
9980;DHT22;5030;51.532;6.766;2022-09-11T16:45:19;23.00;95.30
9980;DHT22;5030;51.532;6.766;2022-09-11T16:47:45;23.40;92.30
9980;DHT22;5030;51.532;6.766;2022-09-11T16:50:11;23.50;99.90
9980;DHT22;5030;51.532;6.766;2022-09-11T16:52:37;23.60;94.50
9980;DHT22;5030;51.532;6.766;2022-09-11T16:55:05;23.20;94.50
9980;DHT22;5030;51.532;6.766;2022-09-11T16:57:31;23.60;91.90
9980;DHT22;5030;51.532;6.766;2022-09-11T16:59:58;23.20;98.00
9980;DHT22;5030;51.532;6.766;2022-09-11T17:02:25;23.30;99.90
9980;DHT22;5030;51.532;6.766;2022-09-11T17:04:51;22.80;94.30
9980;DHT22;5030;51.532;6.766;2022-09-11T17:07:17;22.00;99.90
9980;DHT22;5030;51.532;6.766;2022-09-11T17:09:43;21.30;99.90
9980;DHT22;5030;51.532;6.766;2022-09-11T17:12:11;21.00;99.90
9980;DHT22;5030;51.532;6.766;2022-09-11T17:14:37;20.50;99.90
9980;DHT22;5030;51.532;6.766;2022-09-11T17:17:03;20.20;99.90
9980;DHT22;5030;51.532;6.766;2022-09-11T17:19:29;19.80;99.90
9980;DHT22;5030;51.532;6.766;2022-09-11T17:21:54;19.60;99.90
9980;DHT22;5030;51.532;6.766;2022-09-11T17:24:20;19.20;99.90
9980;DHT22;5030;51.532;6.766;2022-09-11T17:26:47;19.00;99.90
9980;DHT22;5030;51.532;6.766;2022-09-11T17:29:16;18.70;99.90
9980;DHT22;5030;51.532;6.766;2022-09-11T17:31:44;18.50;99.90
9980;DHT22;5030;51.532;6.766;2022-09-11T17:34:11;18.30;99.90
9980;DHT22;5030;51.532;6.766;2022-09-11T17:36:36;18.30;99.90
9980;DHT22;5030;51.532;6.766;2022-09-11T17:39:05;18.30;99.90
9980;DHT22;5030;51.532;6.766;2022-09-11T17:41:31;18.20;99.90
9980;DHT22;5030;51.532;6.766;2022-09-11T17:43:57;18.10;99.90
9980;DHT22;5030;51.532;6.766;2022-09-11T17:46:23;18.00;99.90
9980;DHT22;5030;51.532;6.766;2022-09-11T17:48:49;17.90;99.90
9980;DHT22;5030;51.532;6.766;2022-09-11T17:51:17;17.80;99.90
9980;DHT22;5030;51.532;6.766;2022-09-11T17:53:51;17.60;99.90
9980;DHT22;5030;51.532;6.766;2022-09-11T17:56:22;17.40;99.90
9980;DHT22;5030;51.532;6.766;2022-09-11T17:58:53;17.20;99.90
9980;DHT22;5030;51.532;6.766;2022-09-11T18:01:20;17.10;99.90
9980;DHT22;5030;51.532;6.766;2022-09-11T18:03:50;17.00;99.90
9980;DHT22;5030;51.532;6.766;2022-09-11T18:06:29;17.00;99.90
9980;DHT22;5030;51.532;6.766;2022-09-11T18:09:00;16.90;99.90
9980;DHT22;5030;51.532;6.766;2022-09-11T18:11:30;16.80;99.90
9980;DHT22;5030;51.532;6.766;2022-09-11T18:13:58;16.70;99.90
9980;DHT22;5030;51.532;6.766;2022-09-11T18:16:24;16.60;99.90
9980;DHT22;5030;51.532;6.766;2022-09-11T18:18:50;16.50;99.90
9980;DHT22;5030;51.532;6.766;2022-09-11T18:21:16;16.40;99.90
9980;DHT22;5030;51.532;6.766;2022-09-11T18:23:43;16.20;99.90
9980;DHT22;5030;51.532;6.766;2022-09-11T18:26:18;16.20;99.90